Time;durP1;ratioP1;P1;durP2;ratioP2;P2;SDS_P1;SDS_P2;PMS_P1;PMS_P2;Temp;Humidity;BMP_temperature;BMP_pressure;BME280_temperature;BME280_humidity;BME280_pressure;Samples;Min_cycle;Max_cycle;Signal;HPM_P1;HPM_P2
2022/09/23 00:01:26;;;;;;;2.03;1.02;;;17.60;80.10;;;;;;4985430;28;20529;-78
2022/09/23 00:03:52;;;;;;;1.80;0.82;;;17.60;80.80;;;;;;4973976;28;20062;-79
2022/09/23 00:06:20;;;;;;;1.10;0.73;;;17.60;80.20;;;;;;4975548;28;20026;-78
2022/09/23 00:08:48;;;;;;;3.05;0.90;;;17.60;80.30;;;;;;4971689;28;20031;-78
2022/09/23 00:11:26;;;;;;;2.67;1.02;;;17.50;80.20;;;;;;4983503;28;20085;-79
2022/09/23 00:13:54;;;;;;;3.10;1.10;;;17.50;80.30;;;;;;4981932;28;20042;-79
2022/09/23 00:16:32;;;;;;;1.73;0.80;;;17.50;80.40;;;;;;4987760;28;20030;-79
2022/09/23 00:18:59;;;;;;;2.25;1.02;;;17.50;80.30;;;;;;4968918;28;20019;-79
2022/09/23 00:21:26;;;;;;;1.98;1.00;;;17.50;80.30;;;;;;4972177;28;20057;-78
2022/09/23 00:23:51;;;;;;;2.08;1.13;;;17.50;80.30;;;;;;4984745;28;20033;-79
2022/09/23 00:26:19;;;;;;;2.28;1.20;;;17.50;80.30;;;;;;4975212;28;20022;-79
2022/09/23 00:28:45;;;;;;;1.70;1.00;;;17.50;80.30;;;;;;4984757;28;20035;-79
2022/09/23 00:31:15;;;;;;;1.45;0.93;;;17.50;80.30;;;;;;4973107;28;20417;-78
2022/09/23 00:33:41;;;;;;;1.45;0.80;;;17.50;80.30;;;;;;4976926;28;20035;-78
2022/09/23 00:36:15;;;;;;;1.83;0.90;;;17.50;80.20;;;;;;4977172;28;20027;-79
2022/09/23 00:38:41;;;;;;;1.25;0.90;;;17.50;80.10;;;;;;4982038;28;20466;-80
2022/09/23 00:41:07;;;;;;;2.47;1.13;;;17.60;80.20;;;;;;4987034;28;20076;-79
2022/09/23 00:43:37;;;;;;;2.30;1.10;;;17.60;80.10;;;;;;4979277;28;20038;-79
2022/09/23 00:46:05;;;;;;;2.47;1.13;;;17.50;80.00;;;;;;4974483;28;20035;-78
2022/09/23 00:48:31;;;;;;;2.20;1.10;;;17.60;80.10;;;;;;4985711;28;20713;-78
2022/09/23 00:50:56;;;;;;;1.55;1.10;;;17.60;80.10;;;;;;4972418;28;20030;-79
2022/09/23 00:53:25;;;;;;;1.30;0.88;;;17.60;80.10;;;;;;4978052;28;20125;-79
2022/09/23 00:55:59;;;;;;;2.28;1.00;;;17.60;80.10;;;;;;4987414;28;20054;-79
2022/09/23 00:58:30;;;;;;;1.70;1.05;;;17.50;80.10;;;;;;4990345;28;20030;-79
2022/09/23 01:00:58;;;;;;;1.63;0.80;;;17.50;80.10;;;;;;4973716;28;20500;-78
2022/09/23 01:03:24;;;;;;;1.30;0.90;;;17.50;80.10;;;;;;4979469;28;20061;-79
2022/09/23 01:05:51;;;;;;;1.73;1.20;;;17.50;80.20;;;;;;4990390;28;20069;-78
2022/09/23 01:08:18;;;;;;;1.85;0.88;;;17.50;80.20;;;;;;4976314;28;20081;-78
2022/09/23 01:10:54;;;;;;;1.25;1.05;;;17.50;80.20;;;;;;4977242;28;20034;-78
2022/09/23 01:13:31;;;;;;;2.33;1.10;;;17.50;80.20;;;;;;4982203;28;20038;-79
2022/09/23 01:16:25;;;;;;;1.85;1.10;;;17.50;80.30;;;;;;4972110;28;20193;-79
2022/09/23 01:19:27;;;;;;;1.08;0.88;;;17.50;80.30;;;;;;4978074;28;20463;-78
2022/09/23 01:22:23;;;;;;;1.70;0.90;;;17.50;80.30;;;;;;4979984;28;20022;-78
2022/09/23 01:25:10;;;;;;;2.70;1.20;;;17.50;80.30;;;;;;4985842;28;20102;-78
2022/09/23 01:27:50;;;;;;;1.50;1.00;;;17.50;80.30;;;;;;4984912;28;20026;-79
2022/09/23 01:30:49;;;;;;;2.07;1.10;;;17.50;80.30;;;;;;4982410;28;20372;-79
2022/09/23 01:33:47;;;;;;;2.08;1.10;;;17.50;80.30;;;;;;4983555;28;20253;-79
2022/09/23 01:36:29;;;;;;;1.98;1.10;;;17.50;80.20;;;;;;4983984;28;20042;-79
2022/09/23 01:39:00;;;;;;;1.52;0.98;;;17.50;80.20;;;;;;4988958;28;20134;-79
2022/09/23 01:41:41;;;;;;;1.50;0.80;;;17.50;80.10;;;;;;4983683;28;20113;-79
2022/09/23 01:44:15;;;;;;;1.20;1.00;;;17.50;79.90;;;;;;4978134;28;20035;-79
2022/09/23 01:46:50;;;;;;;1.60;1.08;;;17.50;80.10;;;;;;4983095;28;20326;-80
2022/09/23 01:49:25;;;;;;;1.42;0.95;;;17.50;80.00;;;;;;4983340;28;20047;-78
2022/09/23 01:52:09;;;;;;;1.70;1.00;;;17.50;80.00;;;;;;4986165;28;20018;-80
2022/09/23 01:54:41;;;;;;;1.90;1.05;;;17.50;80.00;;;;;;4993337;28;20074;-80
2022/09/23 01:57:41;;;;;;;2.20;1.00;;;17.50;80.10;;;;;;4988216;28;20110;-80
2022/09/23 02:00:12;;;;;;;1.30;0.93;;;17.40;80.00;;;;;;4966720;28;20066;-79
2022/09/23 02:02:48;;;;;;;1.83;1.00;;;17.50;80.10;;;;;;4985828;28;20784;-78
2022/09/23 02:05:28;;;;;;;2.42;1.20;;;17.50;80.20;;;;;;4987116;28;20058;-80
2022/09/23 02:07:59;;;;;;;1.53;1.00;;;17.50;80.20;;;;;;4986848;28;20151;-80
2022/09/23 02:10:59;;;;;;;1.63;1.00;;;17.40;80.20;;;;;;4985263;28;20439;-79
2022/09/23 02:13:49;;;;;;;1.20;0.90;;;17.40;80.10;;;;;;4961049;28;20871;-79
2022/09/23 02:16:38;;;;;;;1.38;1.10;;;17.40;80.10;;;;;;4977507;28;20031;-80
2022/09/23 02:19:31;;;;;;;1.60;1.05;;;17.40;80.20;;;;;;4985570;28;20043;-78
2022/09/23 02:22:13;;;;;;;1.23;0.90;;;17.40;80.20;;;;;;4975421;28;20107;-79
2022/09/23 02:24:39;;;;;;;1.40;1.00;;;17.50;80.30;;;;;;4981929;28;20030;-79
2022/09/23 02:27:24;;;;;;;1.08;0.90;;;17.40;80.30;;;;;;4990824;28;20026;-79
2022/09/23 02:30:11;;;;;;;2.08;1.10;;;17.40;80.40;;;;;;4986960;28;20558;-79
2022/09/23 02:32:51;;;;;;;1.52;0.93;;;17.40;80.20;;;;;;4978326;28;20745;-79
2022/09/23 02:35:31;;;;;;;1.55;1.00;;;17.50;80.30;;;;;;4998014;28;20058;-78
2022/09/23 02:38:12;;;;;;;2.05;1.10;;;17.50;80.20;;;;;;4982674;28;20275;-78
2022/09/23 02:40:53;;;;;;;2.40;1.10;;;17.50;80.20;;;;;;4981974;28;20022;-79
2022/09/23 02:43:28;;;;;;;1.42;0.90;;;17.50;80.30;;;;;;4980820;28;20026;-78
2022/09/23 02:45:54;;;;;;;2.08;1.10;;;17.50;80.10;;;;;;4973779;28;20022;-79
2022/09/23 02:48:30;;;;;;;1.90;1.00;;;17.50;80.10;;;;;;4979692;28;20100;-79
2022/09/23 02:50:57;;;;;;;2.40;1.20;;;17.50;80.00;;;;;;4975765;28;20023;-78
2022/09/23 02:53:23;;;;;;;2.00;1.05;;;17.40;80.00;;;;;;4970319;28;20492;-79
2022/09/23 02:55:49;;;;;;;1.70;1.00;;;17.40;80.00;;;;;;4980810;28;20042;-78
2022/09/23 02:58:16;;;;;;;1.20;0.90;;;17.40;80.00;;;;;;4979019;28;20117;-79
2022/09/23 03:01:31;;;;;;;1.92;1.00;;;17.40;80.10;;;;;;4984066;28;20054;-78
2022/09/23 03:04:22;;;;;;;1.70;1.20;;;17.40;80.10;;;;;;4940179;28;20043;-78
2022/09/23 03:06:59;;;;;;;2.67;1.27;;;17.40;80.10;;;;;;4970041;28;20414;-77
2022/09/23 03:09:48;;;;;;;1.90;1.10;;;17.40;80.20;;;;;;4969074;28;20474;-78
2022/09/23 03:12:34;;;;;;;2.20;1.15;;;17.40;80.20;;;;;;4969690;28;20018;-78
2022/09/23 03:15:41;;;;;;;1.58;1.05;;;17.40;80.20;;;;;;4968143;28;20023;-78
2022/09/23 03:18:19;;;;;;;2.00;1.20;;;17.40;80.20;;;;;;4946769;29;20424;-79
2022/09/23 03:21:09;;;;;;;2.33;1.25;;;17.30;80.10;;;;;;4982592;28;20037;-78
2022/09/23 03:23:39;;;;;;;2.00;1.20;;;17.40;80.20;;;;;;4989180;28;20076;-78
2022/09/23 03:26:22;;;;;;;1.42;1.08;;;17.40;80.20;;;;;;4989907;28;20487;-79
2022/09/23 03:28:49;;;;;;;1.38;0.95;;;17.40;80.30;;;;;;5004570;28;20597;-78
2022/09/23 03:31:16;;;;;;;1.30;0.98;;;17.40;80.20;;;;;;4990673;28;20027;-79
2022/09/23 03:33:49;;;;;;;2.88;1.30;;;17.50;80.20;;;;;;4970614;28;20022;-79
2022/09/23 03:39:09;;;;;;;1.98;1.30;;;17.40;80.10;;;;;;4985206;28;20041;-78
2022/09/23 03:41:42;;;;;;;1.50;1.00;;;17.40;79.90;;;;;;4986741;28;20422;-79
2022/09/23 03:44:08;;;;;;;1.45;1.00;;;17.40;79.90;;;;;;4982062;28;20034;-79
2022/09/23 03:46:34;;;;;;;2.45;1.10;;;17.40;79.80;;;;;;4973915;28;20026;-77
2022/09/23 03:49:14;;;;;;;1.52;1.08;;;17.40;79.80;;;;;;4990373;28;20026;-78
2022/09/23 03:51:39;;;;;;;1.35;1.00;;;17.40;79.90;;;;;;4983720;28;20041;-78
2022/09/23 03:54:05;;;;;;;2.25;1.40;;;17.40;79.90;;;;;;4981627;28;20030;-78
2022/09/23 03:56:31;;;;;;;1.70;1.08;;;17.40;80.00;;;;;;4985927;28;20030;-78
2022/09/23 03:58:56;;;;;;;2.28;1.10;;;17.40;80.00;;;;;;4982229;28;20049;-78
2022/09/23 04:01:22;;;;;;;1.40;1.00;;;17.30;80.00;;;;;;4986340;28;20050;-79
2022/09/23 04:03:47;;;;;;;1.65;1.17;;;17.40;80.10;;;;;;4988511;28;20034;-79
2022/09/23 04:06:13;;;;;;;2.10;1.20;;;17.30;80.10;;;;;;4987045;28;20042;-79
2022/09/23 04:08:39;;;;;;;1.13;0.90;;;17.30;80.10;;;;;;4980382;28;20030;-79
2022/09/23 04:11:04;;;;;;;2.38;1.10;;;17.30;80.10;;;;;;4990951;28;20058;-79
2022/09/23 04:13:30;;;;;;;1.58;1.08;;;17.40;80.20;;;;;;4988179;28;20029;-79
2022/09/23 04:15:56;;;;;;;1.88;1.00;;;17.30;80.70;;;;;;4985534;28;20041;-79
2022/09/23 04:18:22;;;;;;;2.13;1.20;;;17.30;80.20;;;;;;4983431;28;20055;-78
2022/09/23 04:20:48;;;;;;;2.40;1.20;;;17.40;80.20;;;;;;5001302;28;20034;-78
2022/09/23 04:23:14;;;;;;;1.33;1.00;;;17.40;80.30;;;;;;4984455;28;20041;-80
2022/09/23 04:25:44;;;;;;;1.95;1.27;;;17.30;80.70;;;;;;4989084;28;20042;-78
2022/09/23 04:28:10;;;;;;;1.58;1.10;;;17.30;80.20;;;;;;5006390;28;20068;-79
2022/09/23 04:30:40;;;;;;;1.67;0.90;;;17.40;80.30;;;;;;4989608;28;20034;-80
2022/09/23 04:33:05;;;;;;;1.27;0.90;;;17.40;80.20;;;;;;4989577;28;20038;-80
2022/09/23 04:35:31;;;;;;;2.05;1.10;;;17.40;80.20;;;;;;4978282;28;20026;-79
2022/09/23 04:37:57;;;;;;;2.70;1.15;;;17.40;80.10;;;;;;4981665;28;20037;-79
2022/09/23 04:40:22;;;;;;;2.22;1.05;;;17.40;80.00;;;;;;4977107;28;20038;-79
2022/09/23 04:42:49;;;;;;;1.42;1.00;;;17.30;79.90;;;;;;4984160;28;20034;-78
2022/09/23 04:45:14;;;;;;;1.88;1.08;;;17.40;80.00;;;;;;4968957;28;20034;-80
2022/09/23 04:47:40;;;;;;;2.47;1.30;;;17.30;79.90;;;;;;4969965;28;20039;-79
2022/09/23 04:50:06;;;;;;;1.55;1.17;;;17.40;80.00;;;;;;5001685;28;20026;-79
2022/09/23 04:52:32;;;;;;;1.33;0.90;;;17.30;80.00;;;;;;4988187;28;20026;-78
2022/09/23 04:54:57;;;;;;;1.80;1.20;;;17.30;80.10;;;;;;4987455;28;20034;-80
2022/09/23 04:57:23;;;;;;;1.80;1.10;;;17.30;80.10;;;;;;4987692;28;20041;-80
2022/09/23 04:59:49;;;;;;;1.98;1.10;;;17.30;80.20;;;;;;4988264;28;20161;-79
2022/09/23 05:02:15;;;;;;;1.33;1.00;;;17.30;80.20;;;;;;4987094;28;20100;-78
2022/09/23 05:04:40;;;;;;;1.35;1.08;;;17.30;80.20;;;;;;4972937;28;20030;-80
2022/09/23 05:07:06;;;;;;;1.50;0.98;;;17.30;80.20;;;;;;4984283;28;20625;-78
2022/09/23 05:09:31;;;;;;;1.98;1.05;;;17.30;80.20;;;;;;4986168;28;20117;-79
2022/09/23 05:11:57;;;;;;;2.58;1.10;;;17.30;80.20;;;;;;4982866;28;20044;-78
2022/09/23 05:14:22;;;;;;;5.25;1.45;;;17.30;80.00;;;;;;4982445;28;20403;-79
2022/09/23 05:16:48;;;;;;;2.55;1.23;;;17.30;79.80;;;;;;4989804;28;20069;-79
2022/09/23 05:19:14;;;;;;;3.75;1.13;;;17.30;79.90;;;;;;4983431;28;20084;-78
2022/09/23 05:21:40;;;;;;;2.42;1.05;;;17.30;79.90;;;;;;4997948;28;20550;-78
2022/09/23 05:24:05;;;;;;;2.95;1.00;;;17.30;80.00;;;;;;4982806;28;20030;-78
2022/09/23 05:26:31;;;;;;;2.75;1.13;;;17.30;80.00;;;;;;4983850;28;20454;-78
2022/09/23 05:28:58;;;;;;;2.60;1.23;;;17.30;79.90;;;;;;4986016;28;20038;-78
2022/09/23 05:31:26;;;;;;;2.35;1.23;;;17.30;79.80;;;;;;4987201;28;20104;-77
2022/09/23 05:33:57;;;;;;;2.55;1.00;;;17.40;79.80;;;;;;4983812;28;20031;-80
2022/09/23 05:36:24;;;;;;;2.85;1.30;;;17.40;79.80;;;;;;4972178;28;20031;-79
2022/09/23 05:38:51;;;;;;;4.20;1.30;;;17.40;79.70;;;;;;4971593;28;20088;-79
2022/09/23 05:41:19;;;;;;;3.47;1.20;;;17.30;79.60;;;;;;4971361;28;20023;-79
2022/09/23 05:43:46;;;;;;;4.68;1.50;;;17.30;79.60;;;;;;4972317;28;20109;-78
2022/09/23 05:46:14;;;;;;;2.45;1.00;;;17.30;79.70;;;;;;4969746;28;20030;-79
2022/09/23 05:48:41;;;;;;;5.43;1.40;;;17.30;79.60;;;;;;4971411;28;20039;-79
2022/09/23 05:51:11;;;;;;;3.60;1.20;;;17.30;78.90;;;;;;4969554;28;20027;-79
2022/09/23 05:53:37;;;;;;;3.50;1.40;;;17.30;78.90;;;;;;4968739;28;20611;-80
2022/09/23 05:56:04;;;;;;;2.58;1.30;;;17.30;79.20;;;;;;4970400;28;20039;-78
2022/09/23 05:58:29;;;;;;;2.95;1.30;;;17.30;79.30;;;;;;4969917;28;20026;-79
2022/09/23 06:00:55;;;;;;;5.07;1.38;;;17.30;79.40;;;;;;4968672;28;20033;-79
2022/09/23 06:03:21;;;;;;;2.65;1.30;;;17.30;79.40;;;;;;4968386;28;20019;-79
2022/09/23 06:05:47;;;;;;;4.47;1.50;;;17.30;79.50;;;;;;4968106;28;20041;-79
2022/09/23 06:08:13;;;;;;;3.38;1.70;;;17.30;79.50;;;;;;4968422;28;20030;-78
2022/09/23 06:10:40;;;;;;;1.92;1.20;;;17.30;79.50;;;;;;4969337;28;20118;-78
2022/09/23 06:13:06;;;;;;;5.00;1.40;;;17.30;79.50;;;;;;4968988;28;20058;-79
2022/09/23 06:15:32;;;;;;;2.50;1.27;;;17.30;80.00;;;;;;4968791;28;20031;-78
2022/09/23 06:17:58;;;;;;;2.75;1.30;;;17.30;79.60;;;;;;4970089;28;20027;-79
2022/09/23 06:20:24;;;;;;;2.03;1.23;;;17.30;79.50;;;;;;4968778;28;20031;-78
2022/09/23 06:22:49;;;;;;;2.05;1.13;;;17.30;79.50;;;;;;4968311;28;20031;-79
2022/09/23 06:25:16;;;;;;;2.50;1.20;;;17.30;79.30;;;;;;4969956;28;20038;-79
2022/09/23 06:27:41;;;;;;;2.78;1.25;;;17.40;79.20;;;;;;4969197;28;20027;-79
2022/09/23 06:30:07;;;;;;;3.67;1.30;;;17.40;79.10;;;;;;4967780;28;20035;-78
2022/09/23 06:32:32;;;;;;;2.90;1.10;;;17.50;79.00;;;;;;4969082;28;20117;-78
2022/09/23 06:34:58;;;;;;;3.75;1.35;;;17.50;78.70;;;;;;4969878;28;20045;-79
2022/09/23 06:37:24;;;;;;;2.67;1.40;;;17.50;78.70;;;;;;4968020;28;20241;-79
2022/09/23 06:39:50;;;;;;;3.35;1.33;;;17.50;78.70;;;;;;4969398;28;20534;-79
2022/09/23 06:42:15;;;;;;;2.00;1.20;;;17.50;78.80;;;;;;4967165;28;20027;-78
2022/09/23 06:44:42;;;;;;;2.40;1.10;;;17.50;78.80;;;;;;4969338;28;20027;-77
2022/09/23 06:47:07;;;;;;;1.83;1.10;;;17.50;78.70;;;;;;4969165;28;20035;-79
2022/09/23 06:49:33;;;;;;;2.22;1.13;;;17.60;78.60;;;;;;4967754;28;20039;-79
2022/09/23 06:51:59;;;;;;;2.22;1.35;;;17.60;78.40;;;;;;4967290;28;20026;-79
2022/09/23 06:54:27;;;;;;;4.03;1.25;;;17.70;78.40;;;;;;4969369;28;20027;-79
2022/09/23 06:56:53;;;;;;;1.80;1.13;;;17.60;78.40;;;;;;4967270;28;20038;-79
2022/09/23 06:59:19;;;;;;;2.17;1.23;;;17.60;78.40;;;;;;4968491;28;20550;-79
2022/09/23 07:01:46;;;;;;;4.05;1.20;;;17.60;78.30;;;;;;4969361;28;20661;-79
2022/09/23 07:04:12;;;;;;;2.70;1.20;;;17.70;78.40;;;;;;4970617;28;20507;-80
2022/09/23 07:06:37;;;;;;;3.15;1.45;;;17.70;78.30;;;;;;4970745;28;20034;-79
2022/09/23 07:09:05;;;;;;;2.75;1.40;;;17.70;78.30;;;;;;4969695;28;20089;-79
2022/09/23 07:11:30;;;;;;;2.30;1.15;;;17.70;78.40;;;;;;4968961;28;20118;-79
2022/09/23 07:13:56;;;;;;;2.28;1.10;;;17.70;78.40;;;;;;4969018;28;20488;-79
2022/09/23 07:16:21;;;;;;;3.67;1.20;;;17.60;78.30;;;;;;4969757;28;20085;-80
2022/09/23 07:18:47;;;;;;;2.47;1.30;;;17.70;78.30;;;;;;4971059;28;20026;-79
2022/09/23 07:21:15;;;;;;;3.33;1.30;;;17.70;78.20;;;;;;4969993;28;20376;-79
2022/09/23 07:23:42;;;;;;;1.98;1.20;;;17.70;78.10;;;;;;4970155;28;20033;-79
2022/09/23 07:26:08;;;;;;;2.42;1.30;;;17.80;78.00;;;;;;4968733;28;20534;-79
2022/09/23 07:28:34;;;;;;;2.97;1.20;;;17.80;77.60;;;;;;4968024;28;20204;-78
2022/09/23 07:31:14;;;;;;;2.13;1.20;;;17.90;77.40;;;;;;4967872;28;20031;-78
2022/09/23 07:33:42;;;;;;;2.03;1.23;;;18.00;77.20;;;;;;4966595;28;20035;-79
2022/09/23 07:36:12;;;;;;;2.20;1.33;;;18.00;77.10;;;;;;4969540;28;20077;-79
2022/09/23 07:38:38;;;;;;;2.88;1.45;;;18.00;77.10;;;;;;4967510;28;20026;-78
2022/09/23 07:41:09;;;;;;;1.85;1.20;;;18.00;77.00;;;;;;4966815;28;20488;-79
2022/09/23 07:43:35;;;;;;;2.40;1.10;;;18.10;77.10;;;;;;4969228;28;20029;-79
2022/09/23 07:46:04;;;;;;;2.17;1.35;;;18.10;76.90;;;;;;4979653;28;20031;-79
2022/09/23 07:48:30;;;;;;;2.22;1.20;;;18.10;76.90;;;;;;4987620;28;20034;-78
2022/09/23 07:50:58;;;;;;;1.90;1.13;;;18.10;76.80;;;;;;4985689;28;20031;-78
2022/09/23 07:53:24;;;;;;;2.22;1.30;;;18.10;76.90;;;;;;4986513;28;20476;-79
2022/09/23 07:55:54;;;;;;;1.73;1.20;;;18.10;76.80;;;;;;4986463;28;20030;-78
2022/09/23 07:58:21;;;;;;;1.58;1.20;;;18.10;76.80;;;;;;4983588;28;20050;-78
2022/09/23 08:00:47;;;;;;;2.15;1.30;;;18.20;76.60;;;;;;4979874;28;20062;-79
2022/09/23 08:03:13;;;;;;;4.85;1.52;;;18.20;76.70;;;;;;4982540;28;20030;-78
2022/09/23 08:05:39;;;;;;;5.25;1.55;;;18.20;75.90;;;;;;4985083;28;20042;-79
2022/09/23 08:08:06;;;;;;;3.08;1.48;;;18.20;75.80;;;;;;4978902;28;20053;-78
2022/09/23 08:10:32;;;;;;;3.88;1.50;;;18.30;75.70;;;;;;5001315;28;20031;-79
2022/09/23 08:13:00;;;;;;;5.25;1.67;;;18.40;75.60;;;;;;4985585;28;20034;-77
2022/09/23 08:15:27;;;;;;;3.65;1.40;;;18.40;75.50;;;;;;4986050;28;20258;-78
2022/09/23 08:17:52;;;;;;;3.35;1.50;;;18.40;75.40;;;;;;4983092;28;20029;-77
2022/09/23 08:23:01;;;;;;;2.90;1.55;;;18.50;75.00;;;;;;4986275;28;20474;-78
2022/09/23 08:25:27;;;;;;;4.28;1.38;;;18.60;75.30;;;;;;4984931;28;20030;-78
2022/09/23 08:27:52;;;;;;;3.42;1.55;;;18.70;74.70;;;;;;4986764;28;20022;-78
2022/09/23 08:30:18;;;;;;;6.43;2.00;;;18.70;74.50;;;;;;4984719;28;20030;-78
2022/09/23 08:32:43;;;;;;;2.42;1.23;;;18.70;74.40;;;;;;4984534;28;20031;-78
2022/09/23 08:35:09;;;;;;;4.05;1.60;;;18.80;74.40;;;;;;4984746;28;20037;-77
2022/09/23 08:37:35;;;;;;;4.20;1.38;;;18.70;74.30;;;;;;4986285;28;20030;-77
2022/09/23 08:40:01;;;;;;;4.03;1.33;;;18.70;74.30;;;;;;4985458;28;20377;-78
2022/09/23 08:42:32;;;;;;;3.15;1.30;;;18.80;74.30;;;;;;4986806;28;20050;-79
2022/09/23 08:45:01;;;;;;;3.85;1.60;;;18.80;74.30;;;;;;4985914;28;20026;-78
2022/09/23 08:47:53;;;;;;;3.17;1.48;;;18.80;74.40;;;;;;4986573;28;20042;-78
2022/09/23 08:50:27;;;;;;;3.00;1.40;;;18.80;74.50;;;;;;4986747;28;20060;-78
2022/09/23 08:52:59;;;;;;;3.53;1.38;;;18.80;74.40;;;;;;4986422;28;20030;-78
2022/09/23 08:55:38;;;;;;;2.92;1.58;;;18.80;74.40;;;;;;4984185;28;20093;-78
2022/09/23 08:58:23;;;;;;;1.92;1.25;;;18.70;74.40;;;;;;4985198;28;20053;-78
2022/09/23 09:00:58;;;;;;;3.17;1.40;;;18.80;74.60;;;;;;4985466;28;20026;-77
2022/09/23 09:03:30;;;;;;;5.10;1.33;;;18.80;74.70;;;;;;4986205;28;20030;-79
2022/09/23 09:05:56;;;;;;;2.17;1.38;;;18.70;74.70;;;;;;4985595;28;20089;-78
2022/09/23 09:08:28;;;;;;;4.18;1.75;;;18.70;74.80;;;;;;4989386;28;20026;-78
2022/09/23 09:10:54;;;;;;;2.92;1.60;;;18.70;74.80;;;;;;4989095;28;20050;-78
2022/09/23 09:13:34;;;;;;;3.13;1.70;;;18.70;75.00;;;;;;4989602;28;20066;-78
2022/09/23 09:16:27;;;;;;;2.83;1.40;;;18.70;74.90;;;;;;4989847;28;20568;-79
2022/09/23 09:18:57;;;;;;;3.03;1.40;;;18.80;74.80;;;;;;4988612;28;20121;-78
2022/09/23 09:21:38;;;;;;;4.40;1.70;;;18.80;74.60;;;;;;4990161;28;20026;-78
2022/09/23 09:24:11;;;;;;;;;;;18.80;74.50;;;;;;4988860;28;20117;-79
2022/09/23 09:26:39;;;;;;;3.28;1.40;;;18.80;74.40;;;;;;4990071;28;20387;-79
2022/09/23 09:29:25;;;;;;;2.53;1.30;;;18.80;74.40;;;;;;4990430;28;20045;-78
2022/09/23 09:31:51;;;;;;;2.45;1.50;;;18.80;74.50;;;;;;4993140;28;20039;-79
2022/09/23 09:34:40;;;;;;;3.25;1.60;;;18.80;74.60;;;;;;4992711;28;20041;-78
2022/09/23 09:37:24;;;;;;;2.67;1.50;;;18.70;74.70;;;;;;4983565;28;20511;-78
2022/09/23 09:39:49;;;;;;;3.58;1.50;;;18.80;75.00;;;;;;4989635;28;20092;-79
2022/09/23 09:42:23;;;;;;;2.65;1.58;;;18.70;75.00;;;;;;4989086;28;20026;-79
2022/09/23 09:44:54;;;;;;;3.22;1.55;;;18.70;75.10;;;;;;4991048;28;20093;-79
2022/09/23 09:47:19;;;;;;;2.67;1.60;;;18.70;75.10;;;;;;4989582;28;20062;-79
2022/09/23 09:49:57;;;;;;;2.65;1.50;;;18.70;75.10;;;;;;4989233;28;20076;-78
2022/09/23 09:52:25;;;;;;;2.30;1.40;;;18.70;75.10;;;;;;4988537;28;20499;-78
2022/09/23 09:54:51;;;;;;;2.83;1.55;;;18.70;75.10;;;;;;4990485;28;20027;-79
2022/09/23 09:57:30;;;;;;;2.80;1.38;;;18.60;75.10;;;;;;4989908;28;20286;-78
2022/09/23 09:59:56;;;;;;;2.38;1.33;;;18.60;75.20;;;;;;4989276;28;20033;-78
2022/09/23 10:02:28;;;;;;;2.28;1.38;;;18.60;75.30;;;;;;4987237;28;20030;-78
2022/09/23 10:05:00;;;;;;;3.60;1.50;;;18.60;75.40;;;;;;4988699;28;20108;-78
2022/09/23 10:07:29;;;;;;;2.65;1.42;;;18.50;75.50;;;;;;4988449;28;20030;-78
2022/09/23 10:09:55;;;;;;;2.50;1.23;;;18.50;75.60;;;;;;4988388;28;20113;-78
2022/09/23 10:12:23;;;;;;;2.35;1.40;;;18.50;75.70;;;;;;4988923;28;20030;-78
2022/09/23 10:14:54;;;;;;;2.47;1.45;;;18.50;75.70;;;;;;4988422;28;20397;-79
2022/09/23 10:17:32;;;;;;;3.35;1.40;;;18.50;75.70;;;;;;4987766;28;20105;-78
2022/09/23 10:20:08;;;;;;;2.28;1.20;;;18.50;75.70;;;;;;4988766;28;20034;-78
2022/09/23 10:22:41;;;;;;;3.17;1.45;;;18.40;75.50;;;;;;4988515;28;20034;-77
2022/09/23 10:25:23;;;;;;;2.22;1.38;;;18.40;75.50;;;;;;4987943;28;20030;-77
2022/09/23 10:27:49;;;;;;;2.45;1.40;;;18.40;75.60;;;;;;4989155;28;20417;-78
2022/09/23 10:30:21;;;;;;;2.38;1.30;;;18.40;75.80;;;;;;4987360;28;20029;-78
2022/09/23 10:32:48;;;;;;;2.95;1.40;;;18.40;75.90;;;;;;4987801;28;20057;-78
2022/09/23 10:35:16;;;;;;;3.50;1.42;;;18.40;76.00;;;;;;4988304;28;20030;-78
2022/09/23 10:37:59;;;;;;;2.95;1.60;;;18.30;76.10;;;;;;4987823;28;20100;-78
2022/09/23 10:46:56;;;;;;;2.65;1.50;;;18.30;76.40;;;;;;4975421;28;20105;-78
2022/09/23 10:49:44;;;;;;;2.90;1.42;;;18.30;76.50;;;;;;4987253;28;20030;-79
2022/09/23 10:52:53;;;;;;;2.50;1.50;;;18.20;76.40;;;;;;4988442;28;20514;-78
2022/09/23 10:55:25;;;;;;;2.42;1.40;;;18.20;76.50;;;;;;4951457;28;20027;-78
2022/09/23 10:58:10;;;;;;;2.83;1.30;;;18.20;76.60;;;;;;4985841;28;20097;-78
2022/09/23 11:00:53;;;;;;;2.88;1.52;;;18.20;76.70;;;;;;4987232;28;20041;-78
2022/09/23 11:03:49;;;;;;;2.40;1.42;;;18.10;76.60;;;;;;4986719;28;20026;-78
2022/09/23 11:06:33;;;;;;;2.50;1.35;;;18.20;76.70;;;;;;4988090;28;20584;-78
2022/09/23 11:09:26;;;;;;;3.67;1.58;;;18.10;76.70;;;;;;4986881;28;20026;-78
2022/09/23 11:12:07;;;;;;;2.55;1.42;;;18.10;76.70;;;;;;4986249;28;20026;-78
2022/09/23 11:14:42;;;;;;;;;;;18.10;76.70;;;;;;4985656;28;20339;-78
2022/09/23 11:17:19;;;;;;;2.53;1.30;;;18.10;76.60;;;;;;4985658;28;19914;-79
2022/09/23 11:20:11;;;;;;;1.73;1.10;;;18.10;76.40;;;;;;4986400;28;20030;-77
2022/09/23 11:22:51;;;;;;;1.63;1.17;;;18.10;76.40;;;;;;4986287;28;20030;-78
2022/09/23 11:25:42;;;;;;;1.67;1.13;;;18.20;76.40;;;;;;5003020;28;20506;-78
2022/09/23 11:28:20;;;;;;;2.33;1.30;;;18.20;76.40;;;;;;4986858;28;20503;-78
2022/09/23 11:31:13;;;;;;;2.20;1.40;;;18.20;76.60;;;;;;4987905;28;20037;-78
2022/09/23 11:33:46;;;;;;;1.92;1.35;;;18.10;76.60;;;;;;5002348;28;20117;-78
2022/09/23 11:36:26;;;;;;;2.45;1.33;;;18.10;76.70;;;;;;4987787;28;20393;-78
2022/09/23 11:38:55;;;;;;;2.88;1.45;;;18.10;76.80;;;;;;4987306;28;20022;-79
2022/09/23 11:41:32;;;;;;;2.08;1.40;;;18.10;76.80;;;;;;4987234;28;20503;-78
2022/09/23 11:44:05;;;;;;;2.30;1.20;;;18.10;76.90;;;;;;4987326;28;20030;-78
2022/09/23 11:46:44;;;;;;;4.05;1.65;;;18.00;76.90;;;;;;4987560;28;20032;-78
2022/09/23 11:49:17;;;;;;;2.72;1.42;;;18.00;77.00;;;;;;4987262;28;20038;-79
2022/09/23 11:52:10;;;;;;;2.25;1.50;;;18.00;77.00;;;;;;4986781;28;20038;-78
2022/09/23 11:55:01;;;;;;;2.97;1.30;;;18.00;77.10;;;;;;4985863;28;20019;-78
2022/09/23 11:57:44;;;;;;;2.08;1.25;;;18.00;77.10;;;;;;4987204;28;20030;-78
2022/09/23 12:00:22;;;;;;;3.30;1.40;;;18.00;77.20;;;;;;4987274;28;20022;-79
2022/09/23 12:03:10;;;;;;;2.45;1.40;;;18.00;77.20;;;;;;4987889;28;20432;-78
2022/09/23 12:05:44;;;;;;;2.65;1.40;;;18.00;77.20;;;;;;4987586;28;20487;-79
2022/09/23 12:08:28;;;;;;;2.45;1.33;;;18.00;77.20;;;;;;4987013;28;20474;-78
2022/09/23 12:11:08;;;;;;;2.05;1.35;;;18.00;77.20;;;;;;4985923;28;20030;-78
2022/09/23 12:13:52;;;;;;;2.65;1.50;;;18.00;77.20;;;;;;4987776;28;20084;-79
2022/09/23 12:16:49;;;;;;;2.70;1.48;;;17.90;77.00;;;;;;4986874;28;20036;-79
2022/09/23 12:19:17;;;;;;;2.38;1.30;;;18.00;76.90;;;;;;5001636;28;20029;-78
2022/09/23 12:21:59;;;;;;;2.85;1.40;;;18.00;76.80;;;;;;4985541;28;20022;-79
2022/09/23 12:24:44;;;;;;;3.65;1.40;;;18.00;76.80;;;;;;4986971;28;20057;-78
2022/09/23 12:27:28;;;;;;;2.15;1.27;;;18.00;76.80;;;;;;4986538;28;20483;-79
2022/09/23 12:30:01;;;;;;;2.63;1.65;;;18.00;77.00;;;;;;4987115;28;20436;-78
2022/09/23 12:32:27;;;;;;;2.58;1.48;;;18.00;77.00;;;;;;4978646;28;20399;-79
2022/09/23 12:34:53;;;;;;;2.83;1.30;;;18.00;77.10;;;;;;4975647;28;20165;-78
2022/09/23 12:37:32;;;;;;;2.22;1.30;;;18.00;77.10;;;;;;4980033;28;20038;-79
2022/09/23 12:40:15;;;;;;;2.28;1.20;;;18.00;77.30;;;;;;4971705;28;20042;-78
2022/09/23 12:42:44;;;;;;;1.50;1.20;;;18.00;77.10;;;;;;4983465;28;20643;-77
2022/09/23 12:45:32;;;;;;;2.60;1.23;;;18.00;77.20;;;;;;4974759;28;20027;-78
2022/09/23 12:48:18;;;;;;;2.65;1.63;;;18.00;77.10;;;;;;4976380;28;20030;-78
2022/09/23 12:50:54;;;;;;;2.58;1.23;;;18.00;77.10;;;;;;4981023;28;20393;-78
2022/09/23 12:53:32;;;;;;;2.53;1.45;;;17.90;77.10;;;;;;4977626;28;20027;-78
2022/09/23 12:55:59;;;;;;;3.10;1.40;;;17.90;77.20;;;;;;4970511;28;20035;-77
2022/09/23 12:58:55;;;;;;;3.03;1.45;;;17.90;77.20;;;;;;4972670;28;20034;-78
2022/09/23 13:01:23;;;;;;;1.65;1.20;;;17.90;77.20;;;;;;4976015;28;20109;-77
2022/09/23 13:06:42;;;;;;;3.05;1.40;;;17.90;77.20;;;;;;4966531;28;20085;-79
2022/09/23 13:09:17;;;;;;;1.63;1.20;;;17.90;77.20;;;;;;4965571;28;20034;-78
2022/09/23 13:11:46;;;;;;;2.83;1.17;;;17.90;77.20;;;;;;4965847;28;20042;-79
2022/09/23 13:14:17;;;;;;;2.05;1.27;;;17.90;77.10;;;;;;4966774;28;20440;-79
2022/09/23 13:16:44;;;;;;;2.08;1.30;;;18.00;77.00;;;;;;4964888;28;20036;-79
2022/09/23 13:19:33;;;;;;;2.35;1.38;;;18.00;77.00;;;;;;4964705;28;20031;-78
2022/09/23 13:22:10;;;;;;;1.65;1.08;;;18.00;76.90;;;;;;4964621;28;20026;-79
2022/09/23 13:24:45;;;;;;;2.42;1.20;;;18.00;76.90;;;;;;4965206;28;20407;-78
2022/09/23 13:27:29;;;;;;;2.38;1.30;;;18.00;77.00;;;;;;4966211;28;20022;-78
2022/09/23 13:29:57;;;;;;;1.73;1.30;;;17.90;77.00;;;;;;4965269;28;20029;-79
2022/09/23 13:32:30;;;;;;;2.28;1.42;;;17.90;77.20;;;;;;4965874;28;20027;-78